• Join FlightAware (Why Join?)
  • Login
  • US Flag 
02:09AM EDT


 

Airport Tracker/Info


-or-


 

Live Flight TrackerFlight Track Log ✈ UAL6057 ✈ 06-May-2013 ✈ KORD - KBNA

Flight Track Log - Related Links

Times and Time Zones

All times are in EDT time to prevent confusion due to time zone crossing. See the UAL6057 flight status page for this flight to view local times or setup timezone preferences in your user account.

Time Position Orientation Groundspeed Altitude Reporting Facility
EDT Latitude Longitude Course Direction KTS MPH feet Rate Location/Type
10:08PM 41.9667 -87.8500 186° South 186 214 2,700  Level Chicago TRACON
10:11PM 41.8219 -87.8481 179° South 254 292 7,300 2,040 Climbing Chicago Center
10:12PM 41.7408 -87.8553 184° South 288 331 9,400 2,040 Climbing Chicago Center
10:13PM 41.6572 -87.8614 183° South 299 344 11,600 1,740 Climbing Chicago Center
10:14PM 41.3069 -87.7541 186° South  Level Estimated
10:14PM 41.5708 -87.8667 183° South 309 356 13,000  Level Chicago Center
10:15PM 41.4728 -87.8739 183° South 342 394 14,000 1,020 Climbing Chicago Center
10:16PM 41.3681 -87.8828 184° South 364 419 15,100 1,200 Climbing Chicago Center
10:17PM 41.2617 -87.8925 184° South 376 433 16,500 1,320 Climbing Chicago Center
10:18PM 41.1567 -87.8919 180° South 376 433 17,900 1,380 Climbing Chicago Center
10:19PM 41.0514 -87.8875 178° South 378 435 19,400 1,320 Climbing Chicago Center
10:20PM 40.9456 -87.8836 178° South 380 437 20,600 1,020 Climbing Chicago Center
10:21PM 40.8347 -87.8789 178° South 394 453 21,500 960 Climbing Chicago Center
10:22PM 40.7222 -87.8769 179° South 403 464 22,600 1,080 Climbing Chicago Center
10:23PM 40.5847 -87.8722 179° South 412 474 23,700 1,080 Climbing Chicago Center
10:24PM 40.4692 -87.8681 178° South 417 480 24,800 1,200 Climbing Chicago Center
10:25PM 40.3608 -87.8664 179° South 415 478 26,000 1,260 Climbing Indianapolis Center
10:26PM 40.2472 -87.8619 178° South 411 473 27,300 1,260 Climbing Indianapolis Center
10:27PM 40.1361 -87.8572 178° South 406 467 28,600 1,200 Climbing Indianapolis Center
10:28PM 40.0272 -87.8525 178° South 398 458 29,800 1,080 Climbing Indianapolis Center
10:29PM 39.9156 -87.8478 178° South 400 460 30,900 540 Climbing Indianapolis Center
10:30PM 39.8022 -87.8419 178° South 407 468 31,000  Climbing Indianapolis Center
10:31PM 39.6800 -87.8372 178° South 430 495 31,000  Level Indianapolis Center
10:32PM 39.5558 -87.8314 178° South 444 511 31,000  Level Indianapolis Center
10:33PM 39.4319 -87.8272 179° South 448 516 31,000  Level Indianapolis Center
10:34PM 39.2900 -87.8197 178° South 449 517 31,000 -60 Level Indianapolis Center
10:35PM 39.1661 -87.8139 178° South 446 513 30,900 -660 Descending Indianapolis Center
10:36PM 39.0386 -87.8083 178° South 456 525 29,700 -960 Descending Indianapolis Center
10:37PM 38.9053 -87.7997 177° South 474 545 29,000 -360 Descending Indianapolis Center
10:38PM 38.7792 -87.7550 165° South 471 542 29,000  Level Indianapolis Center
10:39PM 38.6539 -87.7108 165° South 468 539 29,000  Level Indianapolis Center
10:40PM 38.5283 -87.6664 165° South 468 539 29,000  Level Indianapolis Center
10:41PM 38.4036 -87.6222 164° South 467 537 29,000  Level Indianapolis Center
10:42PM 38.2550 -87.5689 164° South 465 535 29,000  Level Indianapolis Center
10:43PM 38.1303 -87.5258 165° South 466 536 29,000  Level Indianapolis Center
10:44PM 38.0053 -87.4819 165° South 468 539 29,000  Level Indianapolis Center
10:45PM 37.8811 -87.4375 164° South 465 535 29,000  Level Indianapolis Center
10:46PM 37.7453 -87.3900 165° South 470 541 29,000 -840 Level Indianapolis Center
10:47PM 37.6161 -87.3458 165° South 476 548 27,300 -1,920 Descending Indianapolis Center
10:48PM 37.5428 -87.3256 168° South 486 559 26,000 -1,740 Descending Memphis Center
10:50PM 37.2928 -87.2414 165° South 474 545 23,000 -1,020 Descending Memphis Center
10:51PM 37.1689 -87.2044 167° South 463 533 23,000  Level Memphis Center
10:52PM 37.0533 -87.1703 167° South 447 514 23,000 -840 Level Memphis Center
10:53PM 36.9297 -87.1361 168° South 447 514 21,400 -2,220 Descending Memphis Center
10:55PM 36.7167 -87.0386 160° South 419 482 16,500 -2,100 Descending Memphis Center
10:56PM 36.6211 -86.9806 154° Southeast 388 447 15,100 -1,380 Descending Memphis Center
10:57PM 36.5342 -86.9272 154° Southeast 383 441 13,800 -1,860 Descending Memphis Center
10:58PM 36.4472 -86.8742 154° Southeast 372 428 11,400 -2,100 Descending Memphis Center
10:59PM 36.3689 -86.8261 154° Southeast 331 381 9,700 -1,680 Descending Memphis Center
11:00PM 36.2861 -86.7756 154° Southeast 304 350 8,100 -1,680 Descending Memphis Center
11:01PM 36.2106 -86.7583 170° South 289 333 6,400 -1,500 Descending Memphis Center
11:02PM 36.1447 -86.7844 198° South 260 299 5,100 -1,500 Descending Memphis Center
11:03PM 36.0828 -86.8075 197° South 238 274 3,500 -1,320 Descending Memphis Center
11:04PM 36.0461 -86.7708 141° Southeast 199 229 2,500 -840 Descending Memphis Center
11:05PM 36.0572 -86.7239 74° East 134 154 1,900 -600 Descending Memphis Center
11:06PM 36.0878 -86.6969 35° Northeast 123 142 1,300 -660 Descending Memphis Center
11:07PM 36.1250 -86.6850 15° North 129 148 600 3,840 Descending Memphis Center
11:08PM 36.1533 -86.6581 38° Northeast 129 148 9,000 4,200 Climbing Memphis Center
11:09PM 36.1839 -86.6361 30° Northeast 129 148 9,000  Level Memphis Center
11:11PM 36.1167 -86.6667 202° Southwest  Level FlightAware Approximate
11:18PM 36.1245 -86.6782 202° Southwest  Level Estimated
11:19PM 36.1245 -86.6782 202° Southwest  Level Estimated
11:20PM 36.1245 -86.6782 202° Southwest  Level Estimated
11:21PM 36.1245 -86.6782 202° Southwest  Level Estimated
11:22PM 36.1245 -86.6782 202° Southwest  Level Estimated
11:23PM 36.1245 -86.6782 202° Southwest  Level Estimated